createdAt,value
2018-05-10T00:00:26.382Z,2.20
2018-05-10T00:02:54.030Z,4.37
2018-05-10T00:05:21.695Z,2.60
2018-05-10T00:07:49.322Z,2.67
2018-05-10T00:10:17.762Z,1.80
2018-05-10T00:12:45.405Z,1.70
2018-05-10T00:15:13.003Z,1.57
2018-05-10T00:17:40.649Z,2.43
2018-05-10T00:20:09.046Z,2.50
2018-05-10T00:22:36.694Z,1.20
2018-05-10T00:25:04.343Z,1.27
2018-05-10T00:27:32.712Z,4.23
2018-05-10T00:30:00.320Z,1.73
2018-05-10T00:32:27.930Z,2.33
2018-05-10T00:34:55.606Z,1.60
2018-05-10T00:37:23.219Z,2.73
2018-05-10T00:39:50.827Z,2.93
2018-05-10T00:42:18.516Z,1.10
2018-05-10T00:44:46.353Z,2.83
2018-05-10T00:47:14.754Z,1.47
2018-05-10T00:49:42.362Z,1.47
2018-05-10T00:52:10.766Z,0.90
2018-05-10T00:54:50.309Z,2.13
2018-05-10T00:57:17.911Z,1.20
2018-05-10T00:59:45.568Z,3.30
2018-05-10T01:04:47.147Z,1.03
2018-05-10T01:07:14.753Z,1.90
2018-05-10T01:09:42.351Z,2.77
2018-05-10T01:12:09.988Z,2.30
2018-05-10T01:14:37.624Z,2.30
2018-05-10T01:17:05.251Z,2.63
2018-05-10T01:19:33.042Z,2.20
2018-05-10T01:22:00.659Z,3.33
2018-05-10T01:24:28.301Z,2.70
2018-05-10T01:26:55.915Z,2.70
2018-05-10T01:29:24.270Z,2.20
2018-05-10T01:31:51.866Z,1.20
2018-05-10T01:34:19.507Z,4.53
2018-05-10T01:36:47.875Z,2.07
2018-05-10T01:39:15.501Z,3.47
2018-05-10T01:41:43.159Z,2.30
2018-05-10T01:44:10.812Z,2.73
2018-05-10T01:46:38.498Z,3.27
2018-05-10T01:49:06.937Z,3.43
2018-05-10T01:51:34.538Z,2.67
2018-05-10T01:54:02.129Z,1.97
2018-05-10T01:56:29.733Z,3.47
2018-05-10T01:58:57.331Z,1.70
2018-05-10T02:01:24.936Z,1.57
2018-05-10T02:03:52.641Z,2.30
2018-05-10T02:06:20.254Z,4.07
2018-05-10T02:08:47.877Z,1.23
2018-05-10T02:11:15.574Z,2.93
2018-05-10T02:13:43.962Z,1.87
2018-05-10T02:16:11.562Z,1.90
2018-05-10T02:18:39.174Z,1.30
2018-05-10T02:21:06.775Z,4.27
2018-05-10T02:23:34.438Z,1.60
2018-05-10T02:26:02.093Z,1.80
2018-05-10T02:28:29.696Z,2.43
2018-05-10T02:30:58.060Z,1.30
2018-05-10T02:33:25.678Z,2.40
2018-05-10T02:35:53.284Z,1.97
2018-05-10T02:38:20.874Z,2.23
2018-05-10T02:40:49.299Z,1.63
2018-05-10T02:43:16.894Z,2.00
2018-05-10T02:45:45.263Z,2.63
2018-05-10T02:48:12.867Z,1.33
2018-05-10T02:50:40.459Z,1.47
2018-05-10T02:53:08.067Z,1.23
2018-05-10T02:55:35.674Z,1.27
2018-05-10T02:58:03.281Z,2.47
2018-05-10T03:00:30.878Z,2.53
2018-05-10T03:02:58.506Z,4.10
2018-05-10T03:05:26.910Z,2.63
2018-05-10T03:07:54.510Z,1.90
2018-05-10T03:10:22.125Z,4.03
2018-05-10T03:12:49.722Z,3.20
2018-05-10T03:15:17.324Z,3.00
2018-05-10T03:17:45.699Z,3.87
2018-05-10T03:20:13.351Z,2.80
2018-05-10T03:22:41.738Z,1.67
2018-05-10T03:25:10.110Z,2.37
2018-05-10T03:27:38.563Z,1.60
2018-05-10T03:30:06.183Z,3.07
2018-05-10T03:32:33.846Z,3.67
2018-05-10T03:35:01.483Z,4.67
2018-05-10T03:37:29.870Z,1.87
2018-05-10T03:39:57.484Z,1.53
2018-05-10T03:42:25.084Z,3.77
2018-05-10T03:44:53.450Z,1.60
2018-05-10T03:47:21.854Z,2.43
2018-05-10T03:49:49.502Z,4.50
2018-05-10T03:52:17.102Z,2.20
2018-05-10T03:54:44.762Z,1.77
2018-05-10T03:57:12.370Z,4.87
2018-05-10T03:59:40.799Z,1.70
2018-05-10T04:02:08.463Z,2.47
2018-05-10T04:05:00.611Z,1.60
2018-05-10T04:07:39.923Z,2.53
2018-05-10T04:10:19.398Z,1.93
2018-05-10T04:12:47.006Z,1.63
2018-05-10T04:15:15.153Z,1.63
2018-05-10T04:17:43.646Z,2.17
2018-05-10T04:20:12.038Z,1.50
2018-05-10T04:22:39.695Z,2.10
2018-05-10T04:25:08.051Z,1.93
2018-05-10T04:27:35.686Z,2.67
2018-05-10T04:30:03.309Z,2.47
2018-05-10T04:32:30.922Z,4.20
2018-05-10T04:34:58.629Z,3.13
2018-05-10T04:37:26.234Z,2.07
2018-05-10T04:39:53.827Z,2.57
2018-05-10T04:42:22.251Z,2.83
2018-05-10T04:44:49.823Z,4.20
2018-05-10T04:47:17.422Z,2.57
2018-05-10T04:49:45.874Z,4.60
2018-05-10T04:52:13.478Z,2.17
2018-05-10T04:54:41.159Z,3.70
2018-05-10T04:57:08.730Z,3.23
2018-05-10T04:59:36.327Z,2.90
2018-05-10T05:02:04.759Z,2.23
2018-05-10T05:04:32.362Z,2.13
2018-05-10T05:06:59.979Z,2.63
2018-05-10T05:09:27.638Z,2.33
2018-05-10T05:11:55.281Z,2.53
2018-05-10T05:14:22.891Z,1.73
2018-05-10T05:16:50.488Z,2.53
2018-05-10T05:19:18.854Z,3.13
2018-05-10T05:21:47.310Z,4.50
2018-05-10T05:24:14.969Z,2.10
2018-05-10T05:26:42.678Z,2.17
2018-05-10T05:29:10.382Z,5.20
2018-05-10T05:31:38.018Z,1.77
2018-05-10T05:34:05.627Z,1.63
2018-05-10T05:36:34.053Z,2.80
2018-05-10T05:39:01.699Z,3.50
2018-05-10T05:41:29.565Z,2.20
2018-05-10T05:43:57.265Z,2.23
2018-05-10T05:46:24.861Z,4.37
2018-05-10T05:48:52.485Z,1.97
2018-05-10T05:51:20.151Z,4.33
2018-05-10T05:53:47.771Z,2.17
2018-05-10T05:56:15.406Z,4.83
2018-05-10T05:58:43.028Z,2.73
2018-05-10T06:01:10.630Z,4.10
2018-05-10T06:03:39.097Z,3.03
2018-05-10T06:06:06.724Z,3.10
2018-05-10T06:08:34.320Z,1.47
2018-05-10T06:11:01.952Z,2.70
2018-05-10T06:13:29.546Z,4.83
2018-05-10T06:15:57.180Z,3.10
2018-05-10T06:18:24.816Z,2.80
2018-05-10T06:20:53.205Z,3.87
2018-05-10T06:23:20.814Z,2.90
2018-05-10T06:25:48.463Z,2.50
2018-05-10T06:28:16.075Z,2.07
2018-05-10T06:30:43.671Z,2.53
2018-05-10T06:33:11.294Z,4.53
2018-05-10T06:35:38.887Z,2.53
2018-05-10T06:38:07.307Z,2.63
2018-05-10T06:40:34.942Z,4.43
2018-05-10T06:43:02.542Z,2.63
2018-05-10T06:45:30.156Z,3.07
2018-05-10T06:47:57.844Z,1.47
2018-05-10T06:50:26.210Z,4.23
2018-05-10T06:52:53.816Z,2.83
2018-05-10T06:55:21.426Z,3.50
2018-05-10T06:57:49.026Z,3.10
2018-05-10T07:00:16.647Z,4.07
2018-05-10T07:02:44.263Z,2.90
2018-05-10T07:05:11.870Z,3.23
2018-05-10T07:07:39.476Z,3.43
2018-05-10T07:10:07.102Z,1.80
2018-05-10T07:12:34.711Z,2.10
2018-05-10T07:15:02.334Z,3.57
2018-05-10T07:17:29.962Z,2.30
2018-05-10T07:19:57.561Z,3.33
2018-05-10T07:22:25.161Z,3.63
2018-05-10T07:24:52.786Z,1.30
2018-05-10T07:27:20.463Z,3.27
2018-05-10T07:29:48.033Z,3.17
2018-05-10T07:32:15.638Z,7.27
2018-05-10T07:34:43.233Z,2.30
2018-05-10T07:37:10.826Z,1.87
2018-05-10T07:39:38.433Z,2.40
2018-05-10T07:42:06.896Z,3.80
2018-05-10T07:44:34.429Z,3.90
2018-05-10T07:47:02.029Z,3.87
2018-05-10T07:49:30.393Z,2.77
2018-05-10T07:51:57.982Z,1.77
2018-05-10T07:54:25.595Z,4.57
2018-05-10T07:56:53.197Z,3.67
2018-05-10T07:59:21.558Z,3.10
2018-05-10T08:01:49.960Z,3.47
2018-05-10T08:04:17.558Z,2.97
2018-05-10T08:06:45.162Z,1.93
2018-05-10T08:09:13.542Z,6.73
2018-05-10T08:11:41.906Z,3.47
2018-05-10T08:14:09.502Z,3.53
2018-05-10T08:16:37.110Z,4.10
2018-05-10T08:19:04.707Z,2.80
2018-05-10T08:21:33.070Z,2.17
2018-05-10T08:24:00.754Z,2.17
2018-05-10T08:26:29.119Z,4.13
2018-05-10T08:28:56.742Z,2.03
2018-05-10T08:31:24.362Z,3.50
2018-05-10T08:33:51.967Z,4.03
2018-05-10T08:36:19.562Z,4.17
2018-05-10T08:38:47.947Z,5.60
2018-05-10T08:41:15.563Z,2.60
2018-05-10T08:43:43.176Z,3.57
2018-05-10T08:46:10.778Z,2.40
2018-05-10T08:48:38.381Z,3.03
2018-05-10T08:51:05.985Z,3.53
2018-05-10T08:53:33.601Z,3.00
2018-05-10T08:56:01.963Z,3.40
2018-05-10T08:58:29.567Z,3.40
2018-05-10T09:00:57.240Z,2.83
2018-05-10T09:03:24.840Z,3.17
2018-05-10T09:05:52.454Z,1.60
2018-05-10T09:08:20.839Z,4.83
2018-05-10T09:10:48.437Z,2.90
2018-05-10T09:13:16.064Z,4.03
2018-05-10T09:15:44.455Z,2.77
2018-05-10T09:18:12.062Z,3.93
2018-05-10T09:20:39.703Z,7.73
2018-05-10T09:23:07.322Z,3.97
2018-05-10T09:25:34.926Z,4.00
2018-05-10T09:28:02.532Z,3.53
2018-05-10T09:30:30.142Z,8.63
2018-05-10T09:32:57.743Z,2.73
2018-05-10T09:35:25.339Z,3.23
2018-05-10T09:37:53.743Z,1.90
2018-05-10T09:40:21.367Z,2.97
2018-05-10T09:42:48.970Z,4.60
2018-05-10T09:45:17.352Z,3.37
2018-05-10T09:47:45.710Z,4.33
2018-05-10T09:50:14.710Z,2.97
2018-05-10T09:52:42.450Z,4.00
2018-05-10T09:55:12.216Z,1.50
2018-05-10T09:57:39.934Z,2.70
2018-05-10T10:00:07.558Z,3.40
2018-05-10T10:02:35.154Z,4.03
2018-05-10T10:05:02.752Z,4.10
2018-05-10T10:07:31.127Z,5.30
2018-05-10T10:09:59.607Z,4.77
2018-05-10T10:12:27.967Z,4.03
2018-05-10T10:14:55.578Z,1.67
2018-05-10T10:17:23.181Z,2.07
2018-05-10T10:19:50.803Z,2.73
2018-05-10T10:22:18.410Z,3.07
2018-05-10T10:24:46.010Z,4.00
2018-05-10T10:27:13.610Z,2.37
2018-05-10T10:29:41.251Z,3.83
2018-05-10T10:32:08.878Z,3.23
2018-05-10T10:34:36.514Z,2.40
2018-05-10T10:37:04.131Z,2.00
2018-05-10T10:39:31.770Z,3.13
2018-05-10T10:41:59.372Z,4.07
2018-05-10T10:44:26.978Z,2.07
2018-05-10T10:46:54.578Z,1.43
2018-05-10T10:49:22.183Z,3.80
2018-05-10T10:51:50.550Z,3.00
2018-05-10T10:54:18.182Z,6.67
2018-05-10T10:56:45.817Z,1.67
2018-05-10T10:59:14.219Z,2.23
2018-05-10T11:01:41.822Z,2.57
2018-05-10T11:04:09.422Z,2.53
2018-05-10T11:06:37.036Z,4.50
2018-05-10T11:09:05.431Z,2.53
2018-05-10T11:11:33.052Z,2.80
2018-05-10T11:14:00.670Z,5.17
2018-05-10T11:16:28.291Z,3.00
2018-05-10T11:18:55.892Z,3.33
2018-05-10T11:21:23.503Z,8.20
2018-05-10T11:23:51.896Z,6.13
2018-05-10T11:26:20.269Z,1.90
2018-05-10T11:28:47.918Z,1.80
2018-05-10T11:31:15.554Z,3.33
2018-05-10T11:33:43.202Z,3.60
2018-05-10T11:36:10.811Z,6.73
2018-05-10T11:38:38.442Z,3.07
2018-05-10T11:41:06.170Z,4.10
2018-05-10T11:43:33.779Z,1.70
2018-05-10T11:46:01.375Z,4.37
2018-05-10T11:48:28.970Z,2.23
2018-05-10T11:50:56.583Z,1.97
2018-05-10T11:53:24.230Z,4.63
2018-05-10T11:55:51.852Z,1.83
2018-05-10T11:58:20.232Z,3.60
2018-05-10T12:00:47.826Z,3.63
2018-05-10T12:03:15.427Z,1.87
2018-05-10T12:05:43.039Z,3.47
2018-05-10T12:08:10.646Z,1.43
2018-05-10T12:10:38.238Z,2.57
2018-05-10T12:13:05.878Z,5.90
2018-05-10T12:15:34.386Z,3.43
2018-05-10T12:18:01.982Z,3.33
2018-05-10T12:20:29.655Z,5.13
2018-05-10T12:22:58.015Z,2.60
2018-05-10T12:25:25.649Z,3.90
2018-05-10T12:27:53.283Z,2.57
2018-05-10T12:30:20.971Z,3.50
2018-05-10T12:32:48.546Z,3.17
2018-05-10T12:35:16.214Z,3.07
2018-05-10T12:37:43.818Z,3.13
2018-05-10T12:40:11.427Z,4.37
2018-05-10T12:42:39.038Z,3.30
2018-05-10T12:45:06.649Z,3.90
2018-05-10T12:47:34.254Z,1.67
2018-05-10T12:50:01.859Z,6.43
2018-05-10T12:52:29.454Z,2.80
2018-05-10T12:54:57.052Z,2.53
2018-05-10T12:57:24.665Z,4.43
2018-05-10T12:59:52.294Z,3.07
2018-05-10T13:02:19.927Z,3.97
2018-05-10T13:04:47.558Z,4.83
2018-05-10T13:07:15.180Z,3.93
2018-05-10T13:09:42.774Z,4.30
2018-05-10T13:12:11.166Z,2.73
2018-05-10T13:14:39.551Z,4.13
2018-05-10T13:17:07.150Z,4.87
2018-05-10T13:19:34.803Z,4.47
2018-05-10T13:22:02.416Z,2.67
2018-05-10T13:24:30.771Z,3.23
2018-05-10T13:26:58.379Z,2.67
2018-05-10T13:29:25.987Z,5.40
2018-05-10T13:31:53.583Z,5.97
2018-05-10T13:34:22.003Z,3.70
2018-05-10T13:36:49.608Z,6.40
2018-05-10T13:39:17.966Z,4.17
2018-05-10T13:41:45.582Z,7.37
2018-05-10T13:44:13.224Z,4.77
2018-05-10T13:46:41.582Z,3.07
2018-05-10T13:49:09.999Z,4.97
2018-05-10T13:51:37.597Z,2.47
2018-05-10T13:54:05.218Z,3.43
2018-05-10T13:56:32.827Z,3.70
2018-05-10T13:59:00.439Z,4.50
2018-05-10T14:01:28.051Z,3.80
2018-05-10T14:03:55.658Z,4.30
2018-05-10T14:06:23.264Z,5.47
2018-05-10T14:08:50.906Z,6.77
2018-05-10T14:11:18.535Z,3.80
2018-05-10T14:13:46.138Z,2.53
2018-05-10T14:16:13.779Z,5.03
2018-05-10T14:18:41.391Z,8.73
2018-05-10T14:21:09.002Z,8.40
2018-05-10T14:23:36.607Z,4.57
2018-05-10T14:26:04.231Z,2.80
2018-05-10T14:28:31.826Z,5.97
2018-05-10T14:30:59.418Z,4.03
2018-05-10T14:33:27.029Z,4.17
2018-05-10T14:35:54.622Z,6.03
2018-05-10T14:38:22.218Z,7.37
2018-05-10T14:40:49.856Z,5.00
2018-05-10T14:43:17.456Z,6.10
2018-05-10T14:45:45.086Z,6.87
2018-05-10T14:48:12.695Z,8.20
2018-05-10T14:50:40.298Z,7.00
2018-05-10T14:53:07.894Z,4.83
2018-05-10T14:55:35.514Z,7.47
2018-05-10T14:58:03.109Z,7.50
2018-05-10T15:00:30.705Z,5.37
2018-05-10T15:02:58.328Z,4.37
2018-05-10T15:05:25.923Z,6.87
2018-05-10T15:07:53.529Z,7.83
2018-05-10T15:10:21.154Z,6.93
2018-05-10T15:12:48.768Z,3.50
2018-05-10T15:15:16.436Z,3.57
2018-05-10T15:17:44.039Z,5.90
2018-05-10T15:20:11.638Z,5.83
2018-05-10T15:22:39.230Z,7.30
2018-05-10T15:25:06.838Z,6.90
2018-05-10T15:27:35.199Z,6.60
2018-05-10T15:30:02.825Z,5.20
2018-05-10T15:32:30.440Z,10.73
2018-05-10T15:34:58.064Z,3.87
2018-05-10T15:37:25.674Z,4.23
2018-05-10T15:39:53.291Z,3.90
2018-05-10T15:42:20.894Z,5.13
2018-05-10T15:44:48.488Z,5.47
2018-05-10T15:47:16.101Z,6.90
2018-05-10T15:49:43.779Z,5.00
2018-05-10T15:52:11.327Z,5.40
2018-05-10T15:54:38.935Z,5.13
2018-05-10T15:57:06.554Z,6.47
2018-05-10T15:59:34.185Z,7.93
2018-05-10T16:02:02.554Z,6.17
2018-05-10T16:04:30.158Z,2.93
2018-05-10T16:06:57.757Z,6.80
2018-05-10T16:09:25.377Z,5.67
2018-05-10T16:11:52.983Z,5.73
2018-05-10T16:14:21.350Z,6.23
2018-05-10T16:16:48.962Z,5.27
2018-05-10T16:19:16.613Z,5.10
2018-05-10T16:21:44.974Z,4.47
2018-05-10T16:24:13.350Z,6.23
2018-05-10T16:26:40.950Z,5.37
2018-05-10T16:29:09.313Z,7.57
2018-05-10T16:31:36.934Z,10.00
2018-05-10T16:34:04.542Z,5.00
2018-05-10T16:36:32.144Z,5.77
2018-05-10T16:38:59.779Z,6.77
2018-05-10T16:41:27.381Z,8.17
2018-05-10T16:43:54.978Z,6.73
2018-05-10T16:46:22.594Z,8.33
2018-05-10T16:48:50.190Z,9.03
2018-05-10T16:51:17.794Z,7.90
2018-05-10T16:53:45.412Z,5.10
2018-05-10T16:56:13.776Z,8.17
2018-05-10T16:58:41.377Z,8.03
2018-05-10T17:01:08.978Z,8.43
2018-05-10T17:03:38.081Z,8.93
2018-05-10T17:06:05.687Z,8.30
2018-05-10T17:08:33.310Z,9.50
2018-05-10T17:11:01.703Z,8.73
2018-05-10T17:13:30.062Z,7.10
2018-05-10T17:15:58.439Z,8.03
2018-05-10T17:18:26.830Z,7.70
2018-05-10T17:20:54.442Z,7.00
2018-05-10T17:23:22.130Z,7.63
2018-05-10T17:25:49.727Z,8.13
2018-05-10T17:28:17.339Z,4.83
2018-05-10T17:30:44.950Z,7.23
2018-05-10T17:33:12.583Z,8.50
2018-05-10T17:35:40.226Z,7.77
2018-05-10T17:38:07.867Z,8.53
2018-05-10T17:40:35.506Z,8.30
2018-05-10T17:43:03.105Z,6.37
2018-05-10T17:45:30.710Z,7.07
2018-05-10T17:47:58.323Z,6.80
2018-05-10T17:50:25.938Z,8.73
2018-05-10T17:52:54.652Z,7.30
2018-05-10T17:55:22.310Z,7.57
2018-05-10T17:57:49.897Z,6.27
2018-05-10T18:00:17.510Z,10.17
2018-05-10T18:02:45.108Z,8.33
2018-05-10T18:05:12.703Z,9.53
2018-05-10T18:07:40.316Z,10.20
2018-05-10T18:10:07.902Z,7.17
2018-05-10T18:12:35.502Z,5.33
2018-05-10T18:15:03.115Z,8.40
2018-05-10T18:17:30.715Z,7.93
2018-05-10T18:19:58.318Z,7.13
2018-05-10T18:22:25.936Z,7.60
2018-05-10T18:24:53.575Z,5.17
2018-05-10T18:27:21.942Z,8.83
2018-05-10T18:29:49.549Z,9.23
2018-05-10T18:32:17.154Z,5.83
2018-05-10T18:34:44.763Z,5.60
2018-05-10T18:37:12.374Z,7.13
2018-05-10T18:39:39.966Z,8.33
2018-05-10T18:42:08.350Z,6.20
2018-05-10T18:44:36.726Z,7.77
2018-05-10T18:47:05.085Z,10.77
2018-05-10T18:49:33.459Z,7.57
2018-05-10T18:52:01.131Z,6.87
2018-05-10T18:54:29.498Z,6.33
2018-05-10T18:56:57.122Z,6.33
2018-05-10T18:59:24.739Z,6.53
2018-05-10T19:01:53.106Z,8.20
2018-05-10T19:04:21.468Z,6.67
2018-05-10T19:06:49.883Z,5.50
2018-05-10T19:09:17.478Z,7.80
2018-05-10T19:11:45.081Z,4.97
2018-05-10T19:14:13.488Z,6.63
2018-05-10T19:16:41.126Z,7.87
2018-05-10T19:19:08.725Z,7.27
2018-05-10T19:21:36.328Z,6.93
2018-05-10T19:24:03.950Z,5.30
2018-05-10T19:26:31.566Z,7.17
2018-05-10T19:28:59.215Z,4.97
2018-05-10T19:31:26.814Z,7.87
2018-05-10T19:33:55.191Z,6.10
2018-05-10T19:36:22.805Z,6.67
2018-05-10T19:38:50.447Z,5.30
2018-05-10T19:41:18.080Z,6.13
2018-05-10T19:43:46.455Z,6.10
2018-05-10T19:46:14.050Z,8.30
2018-05-10T19:48:41.650Z,9.07
2018-05-10T19:51:10.116Z,7.37
2018-05-10T19:53:37.710Z,5.37
2018-05-10T19:56:05.307Z,7.50
2018-05-10T19:58:32.979Z,5.97
2018-05-10T20:01:00.542Z,7.57
2018-05-10T20:03:28.146Z,8.63
2018-05-10T20:05:55.762Z,7.00
2018-05-10T20:08:23.373Z,7.10
2018-05-10T20:10:50.975Z,6.00
2018-05-10T20:13:18.582Z,8.43
2018-05-10T20:15:46.177Z,8.43
2018-05-10T20:18:13.786Z,11.50
2018-05-10T20:20:42.166Z,5.83
2018-05-10T20:23:10.534Z,6.50
2018-05-10T20:25:38.134Z,8.70
2018-05-10T20:28:05.738Z,5.37
2018-05-10T20:30:33.374Z,10.53
2018-05-10T20:33:01.022Z,8.97
2018-05-10T20:35:28.617Z,8.67
2018-05-10T20:37:56.226Z,7.30
2018-05-10T20:40:23.823Z,6.67
2018-05-10T20:42:51.461Z,9.20
2018-05-10T20:45:19.055Z,8.97
2018-05-10T20:47:46.654Z,9.37
2018-05-10T20:50:14.278Z,11.27
2018-05-10T20:52:41.878Z,10.33
2018-05-10T20:55:09.485Z,7.20
2018-05-10T20:57:37.103Z,8.17
2018-05-10T21:00:04.698Z,9.97
2018-05-10T21:02:32.312Z,7.37
2018-05-10T21:04:59.941Z,13.07
2018-05-10T21:07:27.542Z,11.60
2018-05-10T21:09:55.198Z,7.67
2018-05-10T21:12:45.239Z,8.30
2018-05-10T21:15:12.844Z,11.50
2018-05-10T21:17:41.220Z,7.03
2018-05-10T21:20:09.608Z,6.37
2018-05-10T21:22:37.209Z,7.63
2018-05-10T21:25:04.846Z,8.87
2018-05-10T21:27:32.484Z,6.70
2018-05-10T21:30:00.847Z,9.70
2018-05-10T21:32:28.442Z,6.27
2018-05-10T21:34:56.050Z,7.23
2018-05-10T21:37:23.646Z,9.40
2018-05-10T21:39:51.238Z,6.73
2018-05-10T21:42:18.861Z,7.70
2018-05-10T21:44:46.552Z,13.67
2018-05-10T21:47:14.892Z,6.73
2018-05-10T21:49:54.941Z,8.97
2018-05-10T21:52:23.306Z,18.97
2018-05-10T21:54:50.920Z,12.47
2018-05-10T21:57:18.544Z,10.77
2018-05-10T21:59:46.942Z,15.13
2018-05-10T22:02:14.563Z,12.67
2018-05-10T22:04:42.193Z,16.73
2018-05-10T22:07:09.816Z,14.63
2018-05-10T22:09:37.546Z,11.80
2018-05-10T22:12:05.170Z,19.80
2018-05-10T22:14:32.790Z,14.10
2018-05-10T22:17:01.240Z,15.10
2018-05-10T22:19:28.826Z,12.70
2018-05-10T22:21:56.461Z,15.97
2018-05-10T22:24:24.125Z,17.20
2018-05-10T22:26:51.766Z,20.10
2018-05-10T22:29:19.394Z,15.70
2018-05-10T22:31:47.032Z,18.97
2018-05-10T22:34:15.413Z,24.00
2018-05-10T22:36:43.810Z,25.60
2018-05-10T22:39:11.414Z,27.10
2018-05-10T22:41:39.062Z,34.07
2018-05-10T22:44:06.667Z,39.07
2018-05-10T22:46:35.043Z,38.43
2018-05-10T22:49:02.655Z,36.67
2018-05-10T22:51:31.026Z,37.60
2018-05-10T22:53:58.655Z,43.73
2018-05-10T22:56:27.027Z,39.90
2018-05-10T22:58:55.393Z,43.17
2018-05-10T23:01:23.023Z,35.50
2018-05-10T23:03:51.402Z,43.37
2018-05-10T23:06:19.010Z,47.73
2018-05-10T23:08:47.375Z,40.60
2018-05-10T23:11:15.760Z,35.40
2018-05-10T23:13:44.142Z,31.40
2018-05-10T23:16:12.518Z,33.77
2018-05-10T23:18:40.908Z,30.27
2018-05-10T23:21:09.276Z,29.67
2018-05-10T23:23:37.645Z,30.37
2018-05-10T23:26:06.066Z,26.17
2018-05-10T23:28:33.678Z,28.87
2018-05-10T23:31:01.279Z,33.63
2018-05-10T23:33:28.902Z,26.87
2018-05-10T23:35:56.511Z,29.40
2018-05-10T23:38:24.111Z,27.60
2018-05-10T23:40:51.727Z,33.60
2018-05-10T23:43:19.334Z,31.23
2018-05-10T23:45:46.939Z,32.03
2018-05-10T23:48:14.572Z,31.23
2018-05-10T23:50:42.236Z,38.40
2018-05-10T23:53:10.601Z,32.83
2018-05-10T23:55:38.229Z,38.13
2018-05-10T23:58:05.837Z,38.53
